Time;durP1;ratioP1;P1;durP2;ratioP2;P2;SDS_P1;SDS_P2;PMS_P1;PMS_P2;Temp;Humidity;BMP_temperature;BMP_pressure;BME280_temperature;BME280_humidity;BME280_pressure;Samples;Min_cycle;Max_cycle;Signal;HPM_P1;HPM_P2
2022/01/18 00:00:23;;;;;;;8.95;2.30;;;;;;;1.12;70.27;102624.91;4971359;28;20142;-81
2022/01/18 00:02:48;;;;;;;8.85;2.92;;;;;;;1.21;70.82;102621.22;4956472;28;20030;-79
2022/01/18 00:05:15;;;;;;;15.50;3.53;;;;;;;1.27;70.52;102623.22;4968184;28;20115;-80
2022/01/18 00:07:41;;;;;;;12.57;3.13;;;;;;;1.30;70.66;102625.59;4972003;28;20127;-81
2022/01/18 00:10:07;;;;;;;11.02;3.10;;;;;;;1.32;70.17;102633.50;4973687;28;20034;-82
2022/01/18 00:20:47;;;;;;;6.13;1.90;;;;;;;1.09;70.14;102635.97;4957791;28;20026;-80
2022/01/18 00:23:13;;;;;;;13.90;2.10;;;;;;;1.04;70.54;102649.09;4943192;28;20049;-80
2022/01/18 00:25:42;;;;;;;11.23;1.90;;;;;;;1.00;70.36;102636.97;4957135;28;20480;-81
2022/01/18 00:28:07;;;;;;;6.03;1.98;;;;;;;0.97;70.24;102645.34;4957995;28;20022;-80
2022/01/18 00:33:17;;;;;;;8.82;1.80;;;;;;;0.94;70.92;102641.16;4981723;28;20039;-77
2022/01/18 00:35:44;;;;;;;9.27;1.80;;;;;;;0.92;70.85;102642.31;4957250;28;20463;-76
2022/01/18 00:38:28;;;;;;;9.30;2.65;;;;;;;0.87;70.69;102646.34;4970966;28;20045;-75
2022/01/18 00:40:54;;;;;;;8.98;2.00;;;;;;;0.86;70.81;102641.97;4978255;28;20041;-75
2022/01/18 00:43:19;;;;;;;11.25;1.75;;;;;;;0.79;71.23;102648.16;4959574;28;20035;-76
2022/01/18 00:45:45;;;;;;;10.30;1.83;;;;;;;0.74;71.07;102640.59;4972461;28;20472;-75
2022/01/18 00:48:11;;;;;;;16.10;2.20;;;;;;;0.70;71.24;102649.97;4970858;28;20484;-75
2022/01/18 00:50:36;;;;;;;7.80;1.77;;;;;;;0.66;70.89;102651.31;4972224;28;20081;-75
2022/01/18 00:53:06;;;;;;;8.68;2.08;;;;;;;0.65;71.13;102652.28;4954419;28;20019;-75
2022/01/18 00:55:35;;;;;;;8.00;1.63;;;;;;;0.60;71.28;102643.88;4974513;28;20035;-76
2022/01/18 00:58:00;;;;;;;9.93;2.17;;;;;;;0.58;71.43;102654.81;4972073;28;20026;-75
2022/01/18 01:00:26;;;;;;;8.55;1.80;;;;;;;0.56;71.10;102651.44;4957394;28;20033;-75
2022/01/18 01:02:51;;;;;;;9.60;1.65;;;;;;;0.55;71.37;102646.25;4954093;28;20480;-75
2022/01/18 01:05:17;;;;;;;13.75;1.92;;;;;;;0.55;71.12;102643.56;4972777;28;20127;-75
2022/01/18 01:07:42;;;;;;;9.88;1.98;;;;;;;0.55;71.17;102651.59;4952376;29;20031;-75
2022/01/18 01:10:07;;;;;;;13.07;2.08;;;;;;;0.56;70.90;102658.66;4971559;28;20135;-75
2022/01/18 01:12:33;;;;;;;11.80;2.20;;;;;;;0.54;71.28;102656.13;4972381;28;20030;-75
2022/01/18 01:15:06;;;;;;;11.02;1.73;;;;;;;0.52;70.92;102658.13;4939598;28;20074;-75
2022/01/18 01:17:43;;;;;;;10.75;2.60;;;;;;;0.52;71.84;102662.63;4969303;28;20022;-75
2022/01/18 01:34:36;;;;;;;11.50;2.05;;;;;;;1.21;71.92;102656.16;4971396;28;20523;-75
2022/01/18 01:37:10;;;;;;;17.70;2.88;;;;;;;1.36;71.50;102656.31;4969241;28;20129;-76
2022/01/18 01:42:34;;;;;;;10.63;2.78;;;;;;;1.56;71.45;102640.72;4970282;28;20073;-76
2022/01/18 01:45:02;;;;;;;15.75;2.42;;;;;;;1.62;71.91;102634.66;4953743;28;20027;-76
2022/01/18 01:47:35;;;;;;;20.02;2.60;;;;;;;1.66;71.93;102635.16;4956154;28;20030;-76
2022/01/18 01:50:18;;;;;;;15.07;2.72;;;;;;;1.68;71.74;102638.53;4982983;28;20093;-76
2022/01/18 01:52:43;;;;;;;11.13;2.00;;;;;;;1.65;71.62;102642.41;4939190;28;20029;-76
2022/01/18 01:55:09;;;;;;;11.85;2.03;;;;;;;1.61;72.05;102643.75;4953333;28;20034;-76
2022/01/18 01:57:35;;;;;;;8.80;1.48;;;;;;;1.58;71.75;102643.22;4955485;28;20396;-76
2022/01/18 02:00:07;;;;;;;12.70;1.88;;;;;;;1.48;71.93;102648.78;4956321;28;20035;-76
2022/01/18 02:02:32;;;;;;;;;;;;;;;1.40;71.95;102638.03;4969305;28;20576;-76
2022/01/18 02:04:57;;;;;;;13.98;2.38;;;;;;;1.41;71.71;102645.91;4973081;28;19926;-76
2022/01/18 02:07:23;;;;;;;11.52;2.75;;;;;;;1.44;72.49;102647.44;4971598;28;20072;-76
2022/01/18 02:09:48;;;;;;;8.38;1.70;;;;;;;1.40;72.20;102648.78;4972107;28;20092;-76
2022/01/18 02:12:14;;;;;;;9.73;2.97;;;;;;;1.33;72.42;102657.50;4962636;28;20032;-76
2022/01/18 02:14:40;;;;;;;9.20;2.22;;;;;;;1.19;72.20;102660.84;4937895;28;20089;-76
2022/01/18 02:22:34;;;;;;;13.52;2.78;;;;;;;0.73;72.81;102649.63;4959446;28;20098;-75
2022/01/18 02:24:59;;;;;;;16.98;3.28;;;;;;;0.66;72.44;102641.41;4971062;28;20026;-75
2022/01/18 02:27:25;;;;;;;14.07;2.50;;;;;;;0.59;72.62;102639.53;4969384;28;20443;-76
2022/01/18 02:29:50;;;;;;;10.38;2.72;;;;;;;0.55;72.57;102646.25;4954423;28;20057;-76
2022/01/18 02:32:15;;;;;;;15.68;2.35;;;;;;;0.48;72.82;102640.66;4968662;28;20019;-75
2022/01/18 02:34:41;;;;;;;9.73;2.50;;;;;;;0.44;72.83;102640.16;4939621;28;20027;-76
2022/01/18 02:37:07;;;;;;;12.70;3.13;;;;;;;0.43;73.22;102634.94;4971999;28;20027;-75
2022/01/18 02:39:33;;;;;;;11.18;2.78;;;;;;;0.44;73.26;102642.00;4960503;28;20026;-75
2022/01/18 02:42:03;;;;;;;11.40;2.42;;;;;;;0.45;73.36;102646.34;4975305;28;20093;-76
2022/01/18 02:44:30;;;;;;;12.18;4.03;;;;;;;0.46;73.02;102631.09;4977382;28;20468;-75
2022/01/18 02:46:55;;;;;;;10.65;2.55;;;;;;;0.48;73.34;102626.41;4973478;28;20455;-75
2022/01/18 02:49:20;;;;;;;12.68;2.80;;;;;;;0.49;73.89;102637.00;4957226;28;20051;-75
2022/01/18 02:51:46;;;;;;;14.38;2.78;;;;;;;0.52;73.88;102642.03;4975899;28;20076;-76
2022/01/18 02:54:13;;;;;;;10.60;2.95;;;;;;;0.55;74.32;102646.25;4961704;28;20412;-76
2022/01/18 02:56:44;;;;;;;12.10;3.05;;;;;;;0.62;73.86;102656.16;4959081;28;20030;-75
2022/01/18 03:04:19;;;;;;;10.73;2.47;;;;;;;0.72;74.50;102664.09;4962883;28;20037;-76
2022/01/18 03:06:46;;;;;;;14.32;3.00;;;;;;;0.77;74.67;102675.19;4974160;28;20022;-76
2022/01/18 03:09:11;;;;;;;11.02;2.95;;;;;;;0.84;75.12;102673.50;4962468;28;20027;-76
2022/01/18 03:11:37;;;;;;;11.55;3.00;;;;;;;0.89;75.43;102673.88;4981308;28;20122;-76
2022/01/18 03:14:02;;;;;;;6.47;2.63;;;;;;;0.97;75.37;102672.22;4975333;28;20029;-75
2022/01/18 03:16:28;;;;;;;16.58;3.47;;;;;;;1.02;75.42;102669.88;4975362;28;20088;-76
2022/01/18 03:18:53;;;;;;;18.40;3.42;;;;;;;1.07;75.48;102679.13;4972678;28;20045;-76
2022/01/18 03:21:19;;;;;;;9.18;2.75;;;;;;;1.10;75.71;102677.97;4975347;28;20018;-76
2022/01/18 03:23:51;;;;;;;16.58;2.83;;;;;;;1.14;75.85;102689.22;4957903;28;20034;-76
2022/01/18 03:26:18;;;;;;;;;;;;;;;1.18;75.86;102683.34;4938847;28;20113;-76
2022/01/18 03:28:43;;;;;;;11.20;2.80;;;;;;;1.20;76.08;102688.53;4977692;28;19926;-77
2022/01/18 03:31:08;;;;;;;6.65;2.22;;;;;;;1.20;76.54;102696.59;4967636;28;20572;-76
2022/01/18 03:33:34;;;;;;;9.93;2.50;;;;;;;1.21;76.55;102695.63;4974650;28;20026;-76
2022/01/18 03:36:00;;;;;;;8.25;2.83;;;;;;;1.21;75.93;102701.81;4957445;28;20412;-76
2022/01/18 03:38:29;;;;;;;14.65;2.47;;;;;;;1.19;76.51;102701.13;4955273;28;20065;-76
2022/01/18 03:40:56;;;;;;;9.25;1.92;;;;;;;1.25;77.01;102695.09;4942004;28;20050;-76
2022/01/18 03:43:22;;;;;;;9.98;2.40;;;;;;;1.36;76.65;102695.81;4970497;28;20030;-75
2022/01/18 03:45:47;;;;;;;12.68;3.00;;;;;;;1.42;76.92;102698.69;4956895;28;20495;-76
2022/01/18 03:48:27;;;;;;;10.82;2.30;;;;;;;1.48;77.57;102695.31;4957294;28;20038;-76
2022/01/18 03:50:53;;;;;;;10.50;2.10;;;;;;;1.52;77.18;102698.50;4958104;28;20440;-76
2022/01/18 03:53:20;;;;;;;7.10;2.83;;;;;;;1.49;77.19;102694.31;4957097;28;20081;-76
2022/01/18 03:55:45;;;;;;;9.63;3.05;;;;;;;1.57;76.84;102689.94;4973963;28;20030;-75
2022/01/18 03:58:11;;;;;;;10.38;2.10;;;;;;;1.65;77.66;102698.84;4972994;28;20026;-76
2022/01/18 04:00:36;;;;;;;9.60;2.60;;;;;;;1.69;77.31;102704.72;4970622;28;20034;-76
2022/01/18 04:03:02;;;;;;;8.60;2.53;;;;;;;1.72;77.60;102701.72;4969902;28;20038;-76
2022/01/18 04:05:27;;;;;;;10.65;2.40;;;;;;;1.81;77.95;102702.56;4974504;28;20031;-76
2022/01/18 04:07:53;;;;;;;9.13;2.25;;;;;;;1.87;77.63;102696.50;4973185;28;20030;-75
2022/01/18 04:10:18;;;;;;;8.77;2.35;;;;;;;1.94;77.76;102700.22;4967046;28;20027;-75
2022/01/18 04:12:43;;;;;;;9.18;2.53;;;;;;;1.92;78.02;102700.38;4940562;28;20491;-75
2022/01/18 04:15:12;;;;;;;15.27;2.40;;;;;;;1.83;77.90;102700.53;4953561;28;20391;-75
2022/01/18 04:25:54;;;;;;;8.23;2.40;;;;;;;1.57;78.32;102698.84;4960534;28;20091;-75
2022/01/18 04:28:32;;;;;;;10.20;2.17;;;;;;;1.50;78.57;102690.63;4965727;28;20030;-76
2022/01/18 04:30:58;;;;;;;12.88;2.80;;;;;;;1.42;78.29;102693.31;4958849;28;20039;-75
2022/01/18 04:33:23;;;;;;;8.63;2.50;;;;;;;1.30;78.74;102681.19;4971639;28;20027;-75
2022/01/18 04:35:48;;;;;;;11.27;2.78;;;;;;;1.18;78.75;102696.78;4958664;28;20033;-75
2022/01/18 04:38:14;;;;;;;16.33;3.03;;;;;;;1.12;78.99;102692.06;4955944;28;20476;-75
2022/01/18 04:40:42;;;;;;;11.52;2.53;;;;;;;1.09;79.24;102692.38;4963726;28;20030;-74
2022/01/18 04:43:21;;;;;;;10.93;2.65;;;;;;;1.11;79.58;102685.00;4972780;28;20488;-75
2022/01/18 04:48:34;;;;;;;11.02;2.88;;;;;;;1.18;79.03;102694.09;4972175;28;20058;-74
2022/01/18 04:51:08;;;;;;;14.20;2.35;;;;;;;1.18;79.28;102696.78;4975319;28;20034;-75
2022/01/18 04:53:35;;;;;;;8.82;2.38;;;;;;;1.15;79.33;102691.75;4969794;28;20033;-75
2022/01/18 04:56:04;;;;;;;7.70;2.03;;;;;;;1.04;79.50;102684.00;4971302;28;20073;-75
2022/01/18 04:58:30;;;;;;;12.30;2.50;;;;;;;0.96;79.80;102692.03;4973701;28;20027;-75
2022/01/18 05:00:59;;;;;;;13.13;2.90;;;;;;;0.94;79.41;102689.50;4973450;28;20034;-75
2022/01/18 05:03:24;;;;;;;13.07;2.60;;;;;;;0.94;79.74;102688.66;4973791;28;20034;-75
2022/01/18 05:05:52;;;;;;;13.43;2.33;;;;;;;1.04;80.23;102684.84;4955221;28;20041;-75
2022/01/18 05:08:18;;;;;;;10.27;2.58;;;;;;;1.10;80.04;102683.34;4973857;28;20033;-75
2022/01/18 05:10:49;;;;;;;13.73;2.05;;;;;;;1.14;80.38;102676.59;4968704;28;20030;-75
2022/01/18 05:13:35;;;;;;;10.32;2.33;;;;;;;1.12;79.73;102675.97;4963398;28;20046;-75
2022/01/18 05:21:33;;;;;;;12.20;3.58;;;;;;;1.02;79.91;102670.72;4973821;28;20097;-74
2022/01/18 05:23:58;;;;;;;17.35;2.45;;;;;;;1.04;79.73;102668.72;4971715;28;20154;-75
2022/01/18 05:26:24;;;;;;;16.17;3.35;;;;;;;1.08;80.36;102658.47;4937816;28;20487;-75
2022/01/18 05:28:49;;;;;;;11.20;2.67;;;;;;;1.12;80.58;102665.22;4953339;28;20023;-75
2022/01/18 05:31:15;;;;;;;9.07;2.30;;;;;;;1.18;80.57;102658.34;4946467;28;20034;-75
2022/01/18 05:33:42;;;;;;;15.68;3.33;;;;;;;1.22;80.43;102649.75;4972089;28;20473;-75
2022/01/18 05:36:10;;;;;;;10.27;2.88;;;;;;;1.28;80.23;102650.94;4953342;28;20023;-75
2022/01/18 05:38:36;;;;;;;12.25;3.05;;;;;;;1.31;80.72;102645.25;4964912;28;20031;-75
2022/01/18 05:41:05;;;;;;;14.18;3.20;;;;;;;1.36;80.82;102660.88;4970590;28;20026;-75
2022/01/18 05:43:31;;;;;;;16.65;2.88;;;;;;;1.42;81.23;102654.81;4956864;28;20026;-75
2022/01/18 05:45:56;;;;;;;15.55;3.20;;;;;;;1.50;81.30;102657.50;4969130;28;20100;-75
2022/01/18 05:48:23;;;;;;;15.43;2.63;;;;;;;1.54;81.33;102656.19;4960727;28;20049;-75
2022/01/18 05:50:48;;;;;;;12.40;2.85;;;;;;;1.61;81.61;102657.19;4955256;28;20111;-75
2022/01/18 05:53:14;;;;;;;14.32;2.80;;;;;;;1.67;81.77;102664.59;4971978;28;20046;-75
2022/01/18 05:55:39;;;;;;;17.38;2.22;;;;;;;1.74;81.60;102660.19;4969139;28;20027;-76
2022/01/18 05:58:04;;;;;;;20.27;2.85;;;;;;;1.72;82.06;102666.78;4972284;28;20051;-75
2022/01/18 06:00:31;;;;;;;24.73;4.03;;;;;;;1.79;82.45;102678.53;4971382;28;20122;-75
2022/01/18 06:08:09;;;;;;;14.15;3.03;;;;;;;1.61;82.13;102686.78;4964098;28;20041;-74
2022/01/18 06:10:34;;;;;;;15.60;2.28;;;;;;;1.54;82.27;102696.50;4955236;28;20027;-75
2022/01/18 06:13:02;;;;;;;11.95;2.72;;;;;;;1.50;82.93;102684.38;4956663;28;20486;-75
2022/01/18 06:15:27;;;;;;;22.85;3.28;;;;;;;1.52;82.91;102685.06;4976463;28;20498;-75
2022/01/18 06:17:52;;;;;;;24.35;3.45;;;;;;;1.58;83.36;102691.63;4976540;28;20052;-75
2022/01/18 06:20:18;;;;;;;18.58;2.92;;;;;;;1.56;82.70;102686.44;4976012;28;20022;-75
2022/01/18 06:22:43;;;;;;;20.63;3.80;;;;;;;1.65;82.99;102677.34;4965981;28;20365;-75
2022/01/18 06:25:09;;;;;;;19.08;3.60;;;;;;;1.85;83.76;102679.69;4933088;28;20041;-75
2022/01/18 06:27:34;;;;;;;16.27;3.38;;;;;;;1.90;82.87;102674.66;4974517;28;20543;-75
2022/01/18 06:29:59;;;;;;;18.10;3.60;;;;;;;1.96;83.37;102671.28;4974571;28;20031;-75
2022/01/18 06:32:25;;;;;;;20.38;3.05;;;;;;;2.03;83.47;102668.75;4976743;28;20035;-74
2022/01/18 06:34:51;;;;;;;24.63;3.55;;;;;;;2.12;83.75;102668.56;4972848;28;20014;-75
2022/01/18 06:37:16;;;;;;;23.60;3.30;;;;;;;2.17;83.37;102671.56;4972622;28;20034;-75
2022/01/18 06:39:42;;;;;;;21.05;3.75;;;;;;;2.20;83.36;102671.22;4956270;28;20026;-75
2022/01/18 06:42:12;;;;;;;16.88;3.20;;;;;;;2.20;83.66;102667.69;4972575;28;20037;-75
2022/01/18 06:44:37;;;;;;;22.60;3.47;;;;;;;2.21;83.70;102672.09;4955589;28;20037;-75
2022/01/18 06:47:03;;;;;;;26.83;5.10;;;;;;;2.21;83.98;102667.53;4958385;28;20019;-75
2022/01/18 06:49:28;;;;;;;27.50;6.72;;;;;;;2.20;84.35;102665.00;4956785;28;20504;-76
2022/01/18 06:51:54;;;;;;;28.58;6.45;;;;;;;2.23;83.92;102660.09;4957976;28;20034;-75
2022/01/18 06:54:19;;;;;;;29.80;4.88;;;;;;;2.35;84.35;102654.38;4972598;28;20415;-75
2022/01/18 06:56:49;;;;;;;28.58;5.45;;;;;;;2.48;84.72;102645.75;4971313;28;20034;-74
2022/01/18 06:59:14;;;;;;;24.77;3.85;;;;;;;2.57;84.48;102650.94;4970634;28;20498;-75
2022/01/18 07:01:40;;;;;;;18.83;3.35;;;;;;;2.67;84.94;102642.63;4967315;28;20046;-75
2022/01/18 07:04:05;;;;;;;22.17;4.55;;;;;;;2.75;85.01;102639.06;4973573;28;20027;-75
2022/01/18 07:06:31;;;;;;;22.92;3.58;;;;;;;2.79;85.14;102638.53;4971059;28;20031;-74
2022/01/18 07:08:57;;;;;;;25.30;3.50;;;;;;;2.84;85.49;102629.94;4974173;28;20051;-75
2022/01/18 07:11:22;;;;;;;16.83;4.75;;;;;;;2.86;85.78;102626.06;4968308;28;20030;-75
2022/01/18 07:13:47;;;;;;;21.65;4.25;;;;;;;2.84;85.45;102629.94;4955026;28;20039;-74
2022/01/18 07:16:13;;;;;;;23.48;3.40;;;;;;;2.86;86.10;102627.88;4971544;28;20045;-75
2022/01/18 07:18:39;;;;;;;16.50;3.00;;;;;;;2.87;85.95;102624.19;4964903;28;20038;-75
2022/01/18 07:21:04;;;;;;;15.98;2.88;;;;;;;2.85;86.39;102612.75;4952795;28;20153;-75
2022/01/18 07:23:29;;;;;;;24.98;3.58;;;;;;;2.84;85.98;102613.78;4950345;28;20034;-75
2022/01/18 07:25:55;;;;;;;20.17;3.65;;;;;;;2.79;86.44;102610.78;4972103;28;20034;-76
2022/01/18 07:28:20;;;;;;;18.65;3.38;;;;;;;2.80;86.72;102604.34;4956091;28;20031;-74
2022/01/18 07:30:46;;;;;;;22.30;3.30;;;;;;;2.78;86.88;102604.56;4950238;28;20035;-75
2022/01/18 07:33:14;;;;;;;25.63;3.22;;;;;;;2.75;87.13;102612.13;4964989;28;20022;-75
2022/01/18 07:35:40;;;;;;;20.60;3.40;;;;;;;2.74;87.30;102607.75;4953611;28;20547;-74
2022/01/18 07:38:06;;;;;;;22.35;4.53;;;;;;;2.75;87.24;102614.81;4965057;28;20106;-75
2022/01/18 07:40:32;;;;;;;29.95;3.83;;;;;;;2.76;87.07;102611.13;4970975;28;20031;-72
2022/01/18 07:43:00;;;;;;;23.17;3.90;;;;;;;2.80;87.42;102617.81;4953870;28;20038;-72
2022/01/18 07:45:26;;;;;;;19.02;2.78;;;;;;;2.83;87.57;102623.69;4967084;28;20113;-73
2022/01/18 07:47:51;;;;;;;20.63;3.53;;;;;;;2.93;87.98;102623.47;4945374;28;20427;-72
2022/01/18 07:50:17;;;;;;;35.85;3.95;;;;;;;2.98;87.72;102636.41;4973058;28;20050;-73
2022/01/18 07:52:42;;;;;;;19.85;4.20;;;;;;;2.98;87.95;102641.81;4972479;28;20031;-74
2022/01/18 07:55:08;;;;;;;22.25;3.92;;;;;;;2.94;87.74;102646.69;4951745;29;20035;-74
2022/01/18 07:57:33;;;;;;;23.55;4.82;;;;;;;2.89;87.80;102639.16;4951788;28;20092;-72
2022/01/18 07:59:59;;;;;;;19.08;3.83;;;;;;;2.86;87.82;102641.34;4942688;28;20030;-73
2022/01/18 08:02:24;;;;;;;20.13;5.00;;;;;;;2.83;88.21;102644.41;4964026;28;20034;-72
2022/01/18 08:04:49;;;;;;;28.08;4.50;;;;;;;2.84;88.30;102638.03;4953454;28;20123;-72
2022/01/18 08:07:15;;;;;;;19.65;3.40;;;;;;;2.88;88.10;102639.31;4953624;28;20026;-72
2022/01/18 08:09:40;;;;;;;26.50;3.92;;;;;;;2.94;88.38;102640.47;4964610;28;20039;-73
2022/01/18 08:12:06;;;;;;;24.25;3.28;;;;;;;2.97;88.49;102632.03;4963651;28;20018;-72
2022/01/18 08:14:32;;;;;;;24.17;4.07;;;;;;;2.94;88.58;102638.63;4938946;28;20022;-72
2022/01/18 08:17:01;;;;;;;35.90;3.90;;;;;;;2.95;88.61;102637.63;4967960;28;20023;-72
2022/01/18 08:19:31;;;;;;;24.80;3.78;;;;;;;2.97;88.64;102627.47;4968208;28;20488;-73
2022/01/18 08:21:57;;;;;;;20.92;3.28;;;;;;;2.98;88.77;102631.03;4968711;28;20030;-72
2022/01/18 08:24:22;;;;;;;22.38;3.60;;;;;;;3.00;88.82;102626.28;4967221;28;20042;-74
2022/01/18 08:26:48;;;;;;;26.00;3.92;;;;;;;3.07;88.45;102617.31;4948520;28;20038;-74
2022/01/18 08:29:13;;;;;;;26.13;4.80;;;;;;;3.23;89.11;102613.66;4965649;28;20030;-74
2022/01/18 08:31:39;;;;;;;26.38;4.60;;;;;;;3.46;89.48;102619.03;4951764;28;20027;-74
2022/01/18 08:34:05;;;;;;;21.75;3.92;;;;;;;3.68;89.74;102619.19;4954509;28;20019;-74
2022/01/18 08:36:30;;;;;;;25.00;4.95;;;;;;;3.83;89.55;102620.06;4941105;28;20038;-74
2022/01/18 08:38:55;;;;;;;14.38;3.58;;;;;;;3.95;89.96;102623.97;4948027;28;20035;-74
2022/01/18 08:41:21;;;;;;;31.52;4.15;;;;;;;4.03;90.04;102623.06;4951199;28;20444;-74
2022/01/18 08:43:46;;;;;;;23.33;4.40;;;;;;;4.11;90.92;102622.13;4948176;28;20089;-74
2022/01/18 08:46:12;;;;;;;17.67;3.92;;;;;;;4.18;90.60;102623.06;4924821;28;20031;-74
2022/01/18 08:48:37;;;;;;;30.67;5.05;;;;;;;4.20;90.74;102621.00;4947357;28;20101;-74
2022/01/18 08:51:03;;;;;;;16.60;3.78;;;;;;;4.25;90.93;102618.59;4967601;28;20413;-74
2022/01/18 08:53:28;;;;;;;25.92;3.80;;;;;;;4.33;91.23;102615.78;4967642;28;20031;-74
2022/01/18 08:55:54;;;;;;;23.10;4.20;;;;;;;4.43;91.27;102615.53;4968981;28;20054;-74
2022/01/18 08:58:21;;;;;;;21.40;3.55;;;;;;;4.50;91.33;102615.59;4947740;28;20042;-74
2022/01/18 09:00:47;;;;;;;21.95;3.60;;;;;;;4.53;91.37;102607.09;4939598;28;20046;-74
2022/01/18 09:03:12;;;;;;;22.88;4.35;;;;;;;4.59;91.67;102609.06;4950598;28;20035;-74
2022/01/18 09:05:38;;;;;;;25.23;4.07;;;;;;;4.62;91.90;102616.81;4968223;28;20387;-74
2022/01/18 09:08:06;;;;;;;31.73;5.25;;;;;;;4.65;91.74;102617.25;4967408;28;20035;-73
2022/01/18 09:10:32;;;;;;;21.73;3.65;;;;;;;4.76;92.01;102618.63;4927339;28;20468;-74
2022/01/18 09:12:57;;;;;;;26.05;4.80;;;;;;;4.84;91.97;102618.50;4967556;28;20088;-74
2022/01/18 09:15:25;;;;;;;26.27;3.90;;;;;;;4.90;92.10;102615.03;4966074;28;20053;-74
2022/01/18 09:17:50;;;;;;;18.45;4.20;;;;;;;4.99;92.08;102625.72;4935894;28;20027;-74
2022/01/18 09:20:15;;;;;;;27.90;3.90;;;;;;;5.04;91.93;102609.78;4967408;28;20428;-74
2022/01/18 09:22:43;;;;;;;23.27;3.35;;;;;;;5.08;91.78;102609.22;4945496;28;20027;-73
2022/01/18 09:25:10;;;;;;;23.88;3.80;;;;;;;5.12;92.18;102606.94;4961326;28;20050;-74
2022/01/18 09:27:35;;;;;;;22.17;3.65;;;;;;;5.15;92.12;102614.66;4943296;28;20035;-75
2022/01/18 09:30:01;;;;;;;24.27;3.85;;;;;;;5.18;92.41;102622.41;4965111;28;20487;-74
2022/01/18 09:32:26;;;;;;;23.83;4.10;;;;;;;5.23;92.54;102622.66;4965160;28;20027;-74
2022/01/18 09:34:52;;;;;;;25.90;3.45;;;;;;;5.29;92.38;102604.81;4939131;28;20019;-74
2022/01/18 09:37:17;;;;;;;22.27;4.25;;;;;;;5.36;92.69;102621.13;4951591;28;20035;-74
2022/01/18 09:39:43;;;;;;;20.52;3.58;;;;;;;5.42;92.98;102625.75;4963552;28;20034;-75
2022/01/18 09:42:08;;;;;;;18.20;3.72;;;;;;;5.48;92.95;102633.94;4949555;28;20061;-75
2022/01/18 09:44:34;;;;;;;16.15;2.55;;;;;;;5.53;92.89;102630.63;4964780;28;20061;-74
2022/01/18 09:46:59;;;;;;;22.40;3.90;;;;;;;5.56;93.05;102633.81;4965941;28;20038;-75
2022/01/18 09:49:24;;;;;;;21.45;3.33;;;;;;;5.62;92.89;102644.84;4964360;28;20105;-75
2022/01/18 09:51:50;;;;;;;18.23;3.17;;;;;;;5.65;93.18;102642.63;4944909;28;20038;-75
2022/01/18 09:54:16;;;;;;;14.73;2.90;;;;;;;5.68;93.42;102636.00;4954385;28;20026;-74
2022/01/18 09:56:41;;;;;;;13.23;1.90;;;;;;;5.72;93.11;102624.56;4963692;28;20057;-76
2022/01/18 09:59:08;;;;;;;16.63;3.05;;;;;;;5.76;93.20;102633.13;4959566;28;20027;-82
2022/01/18 10:01:33;;;;;;;16.17;2.88;;;;;;;5.79;93.32;102622.75;4965152;28;20023;-74
2022/01/18 10:04:18;;;;;;;19.05;3.53;;;;;;;5.83;93.79;102638.59;4947335;28;20035;-75
2022/01/18 10:06:48;;;;;;;13.88;2.55;;;;;;;5.86;93.41;102640.91;4950043;28;20046;-75
2022/01/18 10:09:15;;;;;;;15.90;2.60;;;;;;;5.89;93.58;102651.31;4950314;28;20062;-75
2022/01/18 10:12:13;;;;;;;11.32;2.65;;;;;;;5.90;93.46;102636.78;4947986;28;20583;-75
2022/01/18 10:14:40;;;;;;;21.15;3.30;;;;;;;5.93;93.51;102650.78;4957840;28;20038;-75
2022/01/18 10:17:07;;;;;;;15.93;2.40;;;;;;;5.97;93.63;102640.38;4945489;28;20391;-75
2022/01/18 10:19:49;;;;;;;17.38;2.38;;;;;;;6.01;93.54;102647.09;4935488;28;20114;-76
2022/01/18 10:22:16;;;;;;;16.33;3.13;;;;;;;6.01;93.36;102636.25;4945011;28;20050;-77
2022/01/18 10:24:42;;;;;;;18.92;2.50;;;;;;;6.00;93.82;102654.38;4965366;28;20097;-76
2022/01/18 10:27:08;;;;;;;17.30;2.92;;;;;;;6.00;93.75;102648.97;4967129;28;20027;-75
2022/01/18 10:29:36;;;;;;;15.18;2.95;;;;;;;6.03;93.66;102660.41;4964432;28;20152;-76
2022/01/18 10:32:34;;;;;;;17.73;3.15;;;;;;;6.06;93.96;102641.09;4934978;28;20026;-76
2022/01/18 10:37:19;;;;;;;15.55;2.60;;;;;;;6.06;93.73;102638.38;4950351;28;20023;-77
2022/01/18 10:40:00;;;;;;;21.23;3.47;;;;;;;6.08;93.66;102630.88;4934459;28;20030;-76
2022/01/18 10:42:32;;;;;;;18.90;2.83;;;;;;;6.11;93.80;102639.47;4948310;28;20031;-76
2022/01/18 10:44:58;;;;;;;13.70;2.55;;;;;;;6.13;93.54;102631.94;4968112;28;20031;-76
2022/01/18 10:47:24;;;;;;;28.63;4.38;;;;;;;6.13;93.28;102634.66;4946970;28;20023;-77
2022/01/18 10:49:50;;;;;;;27.13;3.53;;;;;;;6.16;93.39;102663.22;4949826;28;20049;-76
2022/01/18 10:52:24;;;;;;;29.25;3.63;;;;;;;6.16;93.58;102633.44;4959951;28;20027;-76
2022/01/18 10:54:57;;;;;;;19.65;3.50;;;;;;;6.19;93.47;102633.03;4936714;28;20062;-77
2022/01/18 10:57:27;;;;;;;14.18;2.72;;;;;;;6.20;93.62;102629.31;4951127;28;20134;-76
2022/01/18 11:00:02;;;;;;;20.98;3.22;;;;;;;6.22;93.42;102628.06;4961649;28;20093;-77
2022/01/18 11:02:27;;;;;;;17.48;2.92;;;;;;;6.22;93.40;102649.75;4945910;28;20082;-76
2022/01/18 11:04:54;;;;;;;18.10;2.40;;;;;;;6.23;93.40;102639.75;4952851;28;20030;-75
2022/01/18 11:07:24;;;;;;;25.70;3.20;;;;;;;6.24;93.12;102617.03;4951467;28;20023;-76
2022/01/18 11:09:50;;;;;;;11.60;2.85;;;;;;;6.25;93.15;102631.38;4920779;28;20827;-76
2022/01/18 11:12:15;;;;;;;20.00;3.30;;;;;;;6.26;93.23;102606.81;4954523;28;20037;-75
2022/01/18 11:14:49;;;;;;;16.52;3.45;;;;;;;6.29;93.15;102629.97;4966441;28;20078;-77
2022/01/18 11:17:24;;;;;;;9.63;1.38;;;;;;;6.31;93.00;102608.94;4955115;28;20022;-77
2022/01/18 11:19:50;;;;;;;21.90;2.83;;;;;;;6.33;92.60;102628.53;4958989;28;20399;-76
2022/01/18 11:22:16;;;;;;;11.38;2.30;;;;;;;6.32;92.54;102621.44;4950606;28;20575;-76
2022/01/18 11:24:42;;;;;;;22.70;3.33;;;;;;;6.33;92.69;102620.41;4971915;28;20070;-76
2022/01/18 11:27:12;;;;;;;20.27;2.85;;;;;;;6.34;92.77;102613.97;4964049;28;20030;-76
2022/01/18 11:29:37;;;;;;;12.35;3.17;;;;;;;6.35;92.34;102610.19;4938270;28;20034;-75
2022/01/18 11:32:03;;;;;;;23.73;4.18;;;;;;;6.36;92.42;102615.44;4954457;28;20061;-76
2022/01/18 11:34:50;;;;;;;24.00;2.90;;;;;;;6.35;92.51;102621.03;4957021;28;20019;-76
2022/01/18 11:37:22;;;;;;;14.25;2.85;;;;;;;6.34;92.37;102630.22;4967029;28;20023;-76
2022/01/18 11:39:47;;;;;;;17.48;3.17;;;;;;;6.35;92.36;102621.03;4975324;28;20030;-75
2022/01/18 11:42:13;;;;;;;15.25;2.42;;;;;;;6.39;92.20;102614.19;4939225;28;20046;-75
2022/01/18 11:44:39;;;;;;;15.18;2.80;;;;;;;6.39;92.11;102614.19;4954708;28;20460;-76
2022/01/18 11:47:05;;;;;;;21.00;3.50;;;;;;;6.38;91.95;102602.53;4952052;28;20030;-76
2022/01/18 11:49:33;;;;;;;14.98;3.08;;;;;;;6.41;92.12;102609.38;4922450;28;20141;-75
2022/01/18 11:52:03;;;;;;;13.52;2.38;;;;;;;6.46;91.88;102606.91;4948254;28;20023;-76
2022/01/18 11:56:56;;;;;;;15.30;2.70;;;;;;;6.52;91.91;102606.13;4974437;28;20143;-76
2022/01/18 11:59:26;;;;;;;11.63;2.80;;;;;;;6.54;91.85;102608.63;4968708;28;20496;-75
2022/01/18 12:01:56;;;;;;;17.15;2.70;;;;;;;6.55;91.45;102616.56;4960513;28;20037;-76
2022/01/18 12:04:41;;;;;;;10.98;2.40;;;;;;;6.58;91.40;102610.75;4954471;28;20031;-76
2022/01/18 12:07:10;;;;;;;15.15;2.97;;;;;;;6.60;91.42;102603.25;4972046;28;20365;-76
2022/01/18 12:09:36;;;;;;;15.55;1.92;;;;;;;6.60;91.37;102605.97;4972234;28;20019;-76
2022/01/18 12:12:04;;;;;;;11.23;2.22;;;;;;;6.61;90.96;102610.31;4953010;28;20043;-76
2022/01/18 12:14:33;;;;;;;12.15;2.00;;;;;;;6.61;90.88;102607.63;4951521;28;20023;-75
2022/01/18 12:17:12;;;;;;;15.57;1.98;;;;;;;6.61;90.74;102613.03;4969676;28;20488;-76
2022/01/18 12:19:47;;;;;;;17.48;3.85;;;;;;;6.60;90.94;102624.94;4967159;28;20170;-76
2022/01/18 12:22:13;;;;;;;18.77;2.55;;;;;;;6.59;90.38;102617.81;4971823;28;20424;-75
2022/01/18 12:24:44;;;;;;;13.43;2.72;;;;;;;6.59;90.34;102617.00;4967908;28;20050;-75
2022/01/18 12:27:31;;;;;;;20.30;3.28;;;;;;;6.55;90.54;102615.72;4956348;28;20535;-76
2022/01/18 12:30:36;;;;;;;19.25;4.15;;;;;;;6.54;90.34;102623.00;4970348;28;20034;-76
2022/01/18 12:33:20;;;;;;;26.10;3.85;;;;;;;6.54;90.52;102619.47;4957641;28;20030;-74